sensor_id;sensor_type;location;lat;lon;timestamp;pressure;altitude;pressure_sealevel;temperature;humidity
86204;BME280;76856;42.356;24.732;2024-03-06T00:02:10;98902.19;;;9.80;86.71
86204;BME280;76856;42.356;24.732;2024-03-06T00:04:37;98897.06;;;9.78;87.22
86204;BME280;76856;42.356;24.732;2024-03-06T00:07:03;98905.31;;;9.83;87.07
86204;BME280;76856;42.356;24.732;2024-03-06T00:09:28;98904.84;;;9.80;86.82
86204;BME280;76856;42.356;24.732;2024-03-06T00:11:55;98897.06;;;9.78;87.27
86204;BME280;76856;42.356;24.732;2024-03-06T00:14:21;98901.88;;;9.75;87.76
86204;BME280;76856;42.356;24.732;2024-03-06T00:16:50;98890.03;;;9.70;87.70
86204;BME280;76856;42.356;24.732;2024-03-06T00:19:19;98892.50;;;9.72;87.47
86204;BME280;76856;42.356;24.732;2024-03-06T00:21:46;98895.78;;;9.74;87.83
86204;BME280;76856;42.356;24.732;2024-03-06T00:24:12;98897.25;;;9.77;87.78
86204;BME280;76856;42.356;24.732;2024-03-06T00:26:42;98894.97;;;9.74;87.29
86204;BME280;76856;42.356;24.732;2024-03-06T00:29:08;98902.53;;;9.77;87.40
86204;BME280;76856;42.356;24.732;2024-03-06T00:31:42;98905.19;;;9.77;87.72
86204;BME280;76856;42.356;24.732;2024-03-06T00:34:08;98905.66;;;9.80;87.21
86204;BME280;76856;42.356;24.732;2024-03-06T00:36:34;98910.47;;;9.77;87.36
86204;BME280;76856;42.356;24.732;2024-03-06T00:38:59;98903.72;;;9.74;87.43
86204;BME280;76856;42.356;24.732;2024-03-06T00:41:25;98899.78;;;9.70;87.28
86204;BME280;76856;42.356;24.732;2024-03-06T00:43:51;98909.00;;;9.66;87.37
86204;BME280;76856;42.356;24.732;2024-03-06T00:46:16;98898.16;;;9.53;87.64
86204;BME280;76856;42.356;24.732;2024-03-06T00:48:42;98902.28;;;9.55;87.75
86204;BME280;76856;42.356;24.732;2024-03-06T00:51:08;98896.19;;;9.55;87.94
86204;BME280;76856;42.356;24.732;2024-03-06T00:53:36;98904.28;;;9.53;87.15
86204;BME280;76856;42.356;24.732;2024-03-06T00:56:02;98900.16;;;9.51;87.20
86204;BME280;76856;42.356;24.732;2024-03-06T00:58:28;98919.78;;;9.56;87.00
86204;BME280;76856;42.356;24.732;2024-03-06T01:00:54;98915.81;;;9.52;87.34
86204;BME280;76856;42.356;24.732;2024-03-06T01:03:20;98922.56;;;9.55;87.09
86204;BME280;76856;42.356;24.732;2024-03-06T01:05:46;98912.06;;;9.38;87.50
86204;BME280;76856;42.356;24.732;2024-03-06T01:08:11;98916.69;;;9.36;87.66
86204;BME280;76856;42.356;24.732;2024-03-06T01:10:37;98916.03;;;9.34;88.03
86204;BME280;76856;42.356;24.732;2024-03-06T01:13:02;98917.34;;;9.38;88.33
86204;BME280;76856;42.356;24.732;2024-03-06T01:15:29;98908.81;;;9.28;88.48
86204;BME280;76856;42.356;24.732;2024-03-06T01:17:55;98908.97;;;9.27;88.78
86204;BME280;76856;42.356;24.732;2024-03-06T01:20:20;98914.41;;;9.25;88.89
86204;BME280;76856;42.356;24.732;2024-03-06T01:22:46;98915.72;;;9.29;88.78
86204;BME280;76856;42.356;24.732;2024-03-06T01:25:12;98912.13;;;9.22;89.45
86204;BME280;76856;42.356;24.732;2024-03-06T01:27:37;98914.75;;;9.22;89.02
86204;BME280;76856;42.356;24.732;2024-03-06T01:30:03;98908.97;;;9.18;89.48
86204;BME280;76856;42.356;24.732;2024-03-06T01:32:29;98904.22;;;9.14;89.23
86204;BME280;76856;42.356;24.732;2024-03-06T01:34:55;98913.41;;;9.18;89.62
86204;BME280;76856;42.356;24.732;2024-03-06T01:37:21;98919.03;;;9.23;89.11
86204;BME280;76856;42.356;24.732;2024-03-06T01:39:47;98912.13;;;9.22;88.86
86204;BME280;76856;42.356;24.732;2024-03-06T01:42:12;98922.31;;;9.25;88.82
86204;BME280;76856;42.356;24.732;2024-03-06T01:44:38;98919.03;;;9.23;88.84
86204;BME280;76856;42.356;24.732;2024-03-06T01:47:03;98911.44;;;9.20;88.77
86204;BME280;76856;42.356;24.732;2024-03-06T01:49:29;98915.72;;;9.21;88.57
86204;BME280;76856;42.356;24.732;2024-03-06T01:51:56;98924.97;;;9.25;88.41
86204;BME280;76856;42.356;24.732;2024-03-06T01:54:25;98921.66;;;9.15;88.90
86204;BME280;76856;42.356;24.732;2024-03-06T01:56:51;98928.63;;;9.16;88.65
86204;BME280;76856;42.356;24.732;2024-03-06T01:59:21;98916.88;;;9.18;88.69
86204;BME280;76856;42.356;24.732;2024-03-06T02:01:52;98927.13;;;9.21;88.20
86204;BME280;76856;42.356;24.732;2024-03-06T02:04:19;98927.59;;;9.17;88.18
86204;BME280;76856;42.356;24.732;2024-03-06T02:06:46;98930.91;;;9.11;87.81
86204;BME280;76856;42.356;24.732;2024-03-06T02:09:12;98932.22;;;9.07;87.79
86204;BME280;76856;42.356;24.732;2024-03-06T02:11:39;98926.13;;;9.06;87.37
86204;BME280;76856;42.356;24.732;2024-03-06T02:14:05;98925.31;;;8.97;87.99
86204;BME280;76856;42.356;24.732;2024-03-06T02:16:35;98927.63;;;8.92;88.43
86204;BME280;76856;42.356;24.732;2024-03-06T02:19:01;98927.63;;;9.00;87.88
86204;BME280;76856;42.356;24.732;2024-03-06T02:21:27;98930.25;;;9.00;87.40
86204;BME280;76856;42.356;24.732;2024-03-06T02:23:53;98917.41;;;9.06;86.85
86204;BME280;76856;42.356;24.732;2024-03-06T02:26:20;98928.94;;;9.05;86.66
86204;BME280;76856;42.356;24.732;2024-03-06T02:28:54;98926.94;;;8.98;86.68
86204;BME280;76856;42.356;24.732;2024-03-06T02:31:21;98919.38;;;8.95;86.50
86204;BME280;76856;42.356;24.732;2024-03-06T02:33:48;98929.59;;;8.98;86.69
86204;BME280;76856;42.356;24.732;2024-03-06T02:36:15;98924.66;;;8.95;86.80
86204;BME280;76856;42.356;24.732;2024-03-06T02:38:42;98936.53;;;8.91;86.49
86204;BME280;76856;42.356;24.732;2024-03-06T02:41:09;98940.47;;;8.95;86.55
86204;BME280;76856;42.356;24.732;2024-03-06T02:43:34;98935.72;;;8.91;86.66
86204;BME280;76856;42.356;24.732;2024-03-06T02:46:00;98937.19;;;8.93;86.04
86204;BME280;76856;42.356;24.732;2024-03-06T02:48:26;98944.09;;;8.94;85.67
86204;BME280;76856;42.356;24.732;2024-03-06T02:50:52;98942.94;;;8.89;85.41
86204;BME280;76856;42.356;24.732;2024-03-06T02:53:18;98941.47;;;8.86;85.53
86204;BME280;76856;42.356;24.732;2024-03-06T02:55:43;98945.44;;;8.90;85.00
86204;BME280;76856;42.356;24.732;2024-03-06T02:58:09;98948.56;;;8.86;85.04
86204;BME280;76856;42.356;24.732;2024-03-06T03:00:35;98947.41;;;8.80;85.22
86204;BME280;76856;42.356;24.732;2024-03-06T03:03:01;98944.75;;;8.80;85.00
86204;BME280;76856;42.356;24.732;2024-03-06T03:05:26;98952.34;;;8.75;84.77
86204;BME280;76856;42.356;24.732;2024-03-06T03:07:52;98955.78;;;8.75;84.61
86204;BME280;76856;42.356;24.732;2024-03-06T03:10:18;98952.66;;;8.72;84.13
86204;BME280;76856;42.356;24.732;2024-03-06T03:12:44;98957.25;;;8.53;83.89
86204;BME280;76856;42.356;24.732;2024-03-06T03:15:10;98961.53;;;8.46;85.03
86204;BME280;76856;42.356;24.732;2024-03-06T03:17:36;98952.81;;;8.46;84.88
86204;BME280;76856;42.356;24.732;2024-03-06T03:20:02;98956.78;;;8.50;85.03
86204;BME280;76856;42.356;24.732;2024-03-06T03:22:42;98951.91;;;8.29;85.76
86204;BME280;76856;42.356;24.732;2024-03-06T03:25:09;98943.03;;;8.30;85.56
86204;BME280;76856;42.356;24.732;2024-03-06T03:27:41;98954.56;;;8.37;86.19
86204;BME280;76856;42.356;24.732;2024-03-06T03:30:12;98960.81;;;8.36;86.05
86204;BME280;76856;42.356;24.732;2024-03-06T03:32:38;98974.34;;;8.41;85.99
86204;BME280;76856;42.356;24.732;2024-03-06T03:35:05;98970.91;;;8.41;86.39
86204;BME280;76856;42.356;24.732;2024-03-06T03:37:31;98973.69;;;8.39;86.15
86204;BME280;76856;42.356;24.732;2024-03-06T03:39:57;98971.19;;;8.38;86.55
86204;BME280;76856;42.356;24.732;2024-03-06T03:42:22;98968.72;;;8.36;85.81
86204;BME280;76856;42.356;24.732;2024-03-06T03:44:48;98969.69;;;8.35;86.35
86204;BME280;76856;42.356;24.732;2024-03-06T03:47:14;98955.53;;;8.28;86.41
86204;BME280;76856;42.356;24.732;2024-03-06T03:49:40;98958.84;;;8.30;86.56
86204;BME280;76856;42.356;24.732;2024-03-06T03:52:06;98960.16;;;8.34;86.34
86204;BME280;76856;42.356;24.732;2024-03-06T03:54:32;98967.25;;;8.33;86.42
86204;BME280;76856;42.356;24.732;2024-03-06T03:56:58;98958.16;;;8.28;86.39
86204;BME280;76856;42.356;24.732;2024-03-06T03:59:25;98967.25;;;8.33;86.54
86204;BME280;76856;42.356;24.732;2024-03-06T04:01:51;98970.38;;;8.37;86.05
86204;BME280;76856;42.356;24.732;2024-03-06T04:04:17;98973.31;;;8.34;86.52
86204;BME280;76856;42.356;24.732;2024-03-06T04:06:43;98971.00;;;8.31;86.65
86204;BME280;76856;42.356;24.732;2024-03-06T04:09:08;98969.06;;;8.33;85.79
86204;BME280;76856;42.356;24.732;2024-03-06T04:11:37;98974.13;;;8.26;85.91
86204;BME280;76856;42.356;24.732;2024-03-06T04:14:04;98976.25;;;8.23;85.00
86204;BME280;76856;42.356;24.732;2024-03-06T04:16:30;98982.19;;;8.25;84.98
86204;BME280;76856;42.356;24.732;2024-03-06T04:18:56;98982.66;;;8.20;83.84
86204;BME280;76856;42.356;24.732;2024-03-06T04:21:22;98984.63;;;8.18;83.73
86204;BME280;76856;42.356;24.732;2024-03-06T04:23:48;98990.06;;;8.17;83.38
86204;BME280;76856;42.356;24.732;2024-03-06T04:26:13;98996.31;;;8.16;83.42
86204;BME280;76856;42.356;24.732;2024-03-06T04:28:39;98997.13;;;8.16;82.59
86204;BME280;76856;42.356;24.732;2024-03-06T04:31:05;98993.97;;;8.12;82.93
86204;BME280;76856;42.356;24.732;2024-03-06T04:33:30;98991.47;;;8.03;82.74
86204;BME280;76856;42.356;24.732;2024-03-06T04:35:56;98990.34;;;8.05;82.98
86204;BME280;76856;42.356;24.732;2024-03-06T04:38:22;98986.22;;;8.03;81.78
86204;BME280;76856;42.356;24.732;2024-03-06T04:40:47;98989.66;;;8.03;82.21
86204;BME280;76856;42.356;24.732;2024-03-06T04:43:13;98987.53;;;7.99;81.55
86204;BME280;76856;42.356;24.732;2024-03-06T04:45:39;98988.63;;;7.88;81.90
86204;BME280;76856;42.356;24.732;2024-03-06T04:48:05;99002.09;;;7.85;82.61
86204;BME280;76856;42.356;24.732;2024-03-06T04:50:31;98996.53;;;7.88;82.11
86204;BME280;76856;42.356;24.732;2024-03-06T04:52:58;98989.91;;;7.84;81.82
86204;BME280;76856;42.356;24.732;2024-03-06T04:55:24;98997.16;;;7.82;82.08
86204;BME280;76856;42.356;24.732;2024-03-06T04:57:52;98997.16;;;7.82;82.34
86204;BME280;76856;42.356;24.732;2024-03-06T05:00:19;98996.78;;;7.77;82.02
86204;BME280;76856;42.356;24.732;2024-03-06T05:02:44;98993.75;;;7.63;82.79
86204;BME280;76856;42.356;24.732;2024-03-06T05:05:11;99004.59;;;7.60;82.46
86204;BME280;76856;42.356;24.732;2024-03-06T05:07:36;99004.22;;;7.55;82.03
86204;BME280;76856;42.356;24.732;2024-03-06T05:10:02;99007.16;;;7.52;82.29
86204;BME280;76856;42.356;24.732;2024-03-06T05:12:28;99011.47;;;7.35;82.60
86204;BME280;76856;42.356;24.732;2024-03-06T05:14:55;99012.84;;;7.39;82.43
86204;BME280;76856;42.356;24.732;2024-03-06T05:17:21;99016.97;;;7.42;82.07
86204;BME280;76856;42.356;24.732;2024-03-06T05:19:47;99019.91;;;7.39;82.11
86204;BME280;76856;42.356;24.732;2024-03-06T05:22:14;99030.19;;;7.32;82.12
86204;BME280;76856;42.356;24.732;2024-03-06T05:24:41;99030.97;;;7.25;82.85
86204;BME280;76856;42.356;24.732;2024-03-06T05:27:08;99022.09;;;7.26;82.41
86204;BME280;76856;42.356;24.732;2024-03-06T05:29:35;99037.25;;;7.32;82.68
86204;BME280;76856;42.356;24.732;2024-03-06T05:32:02;99029.44;;;7.40;82.96
86204;BME280;76856;42.356;24.732;2024-03-06T05:34:29;99039.44;;;7.36;82.75
86204;BME280;76856;42.356;24.732;2024-03-06T05:36:57;99049.03;;;7.45;83.34
86204;BME280;76856;42.356;24.732;2024-03-06T05:39:23;99046.59;;;7.44;83.65
86204;BME280;76856;42.356;24.732;2024-03-06T05:41:49;99050.16;;;7.43;84.24
86204;BME280;76856;42.356;24.732;2024-03-06T05:44:14;99053.47;;;7.45;83.91
86204;BME280;76856;42.356;24.732;2024-03-06T05:46:40;99059.75;;;7.52;84.66
86204;BME280;76856;42.356;24.732;2024-03-06T05:49:06;99051.06;;;7.52;83.88
86204;BME280;76856;42.356;24.732;2024-03-06T05:51:31;99064.72;;;7.55;84.54
86204;BME280;76856;42.356;24.732;2024-03-06T05:53:57;99057.50;;;7.57;84.79
86204;BME280;76856;42.356;24.732;2024-03-06T05:56:23;99050.66;;;7.64;86.69
86204;BME280;76856;42.356;24.732;2024-03-06T05:58:49;99060.41;;;7.72;86.59
86204;BME280;76856;42.356;24.732;2024-03-06T06:01:15;99063.91;;;7.81;86.68
86204;BME280;76856;42.356;24.732;2024-03-06T06:03:44;99062.31;;;7.88;86.51
86204;BME280;76856;42.356;24.732;2024-03-06T06:06:09;99058.03;;;7.87;85.62
86204;BME280;76856;42.356;24.732;2024-03-06T06:08:35;99057.09;;;7.96;86.19
86204;BME280;76856;42.356;24.732;2024-03-06T06:11:01;99060.38;;;7.98;86.66
86204;BME280;76856;42.356;24.732;2024-03-06T06:13:28;99062.44;;;8.12;87.02
86204;BME280;76856;42.356;24.732;2024-03-06T06:15:54;99062.16;;;8.16;87.28
86204;BME280;76856;42.356;24.732;2024-03-06T06:18:20;99065.66;;;8.24;87.67
86204;BME280;76856;42.356;24.732;2024-03-06T06:20:46;99062.84;;;8.26;85.59
86204;BME280;76856;42.356;24.732;2024-03-06T06:23:11;99072.09;;;8.30;86.27
86204;BME280;76856;42.356;24.732;2024-03-06T06:25:37;99067.16;;;8.35;87.10
86204;BME280;76856;42.356;24.732;2024-03-06T06:28:03;99078.78;;;8.50;89.00
86204;BME280;76856;42.356;24.732;2024-03-06T06:30:29;99073.00;;;8.55;88.40
86204;BME280;76856;42.356;24.732;2024-03-06T06:32:55;99077.84;;;8.68;87.87
86204;BME280;76856;42.356;24.732;2024-03-06T06:35:20;99087.78;;;8.82;87.76
86204;BME280;76856;42.356;24.732;2024-03-06T06:37:47;99082.66;;;8.89;88.43
86204;BME280;76856;42.356;24.732;2024-03-06T06:40:13;99086.50;;;9.02;87.75
86204;BME280;76856;42.356;24.732;2024-03-06T06:42:44;99080.88;;;9.06;85.74
86204;BME280;76856;42.356;24.732;2024-03-06T06:45:15;99081.88;;;9.13;85.42
86204;BME280;76856;42.356;24.732;2024-03-06T06:47:41;99083.69;;;9.20;87.38
86204;BME280;76856;42.356;24.732;2024-03-06T06:50:07;99098.41;;;9.39;88.53
86204;BME280;76856;42.356;24.732;2024-03-06T06:52:35;99090.50;;;9.56;84.43
86204;BME280;76856;42.356;24.732;2024-03-06T06:55:00;99094.94;;;9.55;82.02
86204;BME280;76856;42.356;24.732;2024-03-06T06:57:26;99091.47;;;9.55;83.15
86204;BME280;76856;42.356;24.732;2024-03-06T06:59:52;99099.06;;;9.58;83.21
86204;BME280;76856;42.356;24.732;2024-03-06T07:02:18;99091.81;;;9.52;83.72
86204;BME280;76856;42.356;24.732;2024-03-06T07:04:43;99098.72;;;9.53;83.38
86204;BME280;76856;42.356;24.732;2024-03-06T07:07:09;99099.38;;;9.46;83.82
86204;BME280;76856;42.356;24.732;2024-03-06T07:09:34;99106.66;;;9.36;82.49
86204;BME280;76856;42.356;24.732;2024-03-06T07:12:00;99102.66;;;9.24;82.19
86204;BME280;76856;42.356;24.732;2024-03-06T07:14:25;99108.44;;;9.19;83.21
86204;BME280;76856;42.356;24.732;2024-03-06T07:16:51;99103.50;;;9.16;83.32
86204;BME280;76856;42.356;24.732;2024-03-06T07:19:17;99099.84;;;9.17;84.40
86204;BME280;76856;42.356;24.732;2024-03-06T07:21:42;99102.34;;;9.11;84.99
86204;BME280;76856;42.356;24.732;2024-03-06T07:24:08;99096.38;;;9.09;85.43
86204;BME280;76856;42.356;24.732;2024-03-06T07:26:34;99101.97;;;9.06;84.26
86204;BME280;76856;42.356;24.732;2024-03-06T07:29:00;99100.03;;;9.08;85.84
86204;BME280;76856;42.356;24.732;2024-03-06T07:31:26;99109.09;;;9.13;86.06
86204;BME280;76856;42.356;24.732;2024-03-06T07:33:52;99094.75;;;9.16;84.25
86204;BME280;76856;42.356;24.732;2024-03-06T07:36:18;99103.00;;;9.21;84.97
86204;BME280;76856;42.356;24.732;2024-03-06T07:38:44;99097.56;;;9.14;84.46
86204;BME280;76856;42.356;24.732;2024-03-06T07:41:09;99099.88;;;9.34;87.32
86204;BME280;76856;42.356;24.732;2024-03-06T07:43:36;99088.00;;;9.46;85.60
86204;BME280;76856;42.356;24.732;2024-03-06T07:46:01;99096.59;;;9.64;86.36
86204;BME280;76856;42.356;24.732;2024-03-06T07:48:27;99090.13;;;9.83;87.02
86204;BME280;76856;42.356;24.732;2024-03-06T07:50:52;99087.81;;;9.88;86.06
86204;BME280;76856;42.356;24.732;2024-03-06T07:53:18;99078.84;;;10.06;86.84
86204;BME280;76856;42.356;24.732;2024-03-06T07:55:43;99079.44;;;10.24;84.36
86204;BME280;76856;42.356;24.732;2024-03-06T07:58:09;99086.88;;;10.37;83.08
86204;BME280;76856;42.356;24.732;2024-03-06T08:00:35;99091.59;;;10.50;83.79
86204;BME280;76856;42.356;24.732;2024-03-06T08:03:01;99082.91;;;10.72;85.00
86204;BME280;76856;42.356;24.732;2024-03-06T08:05:28;99088.09;;;10.97;85.93
86204;BME280;76856;42.356;24.732;2024-03-06T08:07:53;99088.63;;;11.15;83.41
86204;BME280;76856;42.356;24.732;2024-03-06T08:10:19;99090.78;;;11.35;83.14
86204;BME280;76856;42.356;24.732;2024-03-06T08:12:45;99090.47;;;11.53;81.62
86204;BME280;76856;42.356;24.732;2024-03-06T08:15:14;99088.09;;;11.81;82.58
86204;BME280;76856;42.356;24.732;2024-03-06T08:17:43;99081.66;;;11.98;78.40
86204;BME280;76856;42.356;24.732;2024-03-06T08:20:09;99099.03;;;12.15;78.98
86204;BME280;76856;42.356;24.732;2024-03-06T08:22:39;99090.44;;;12.13;79.22
86204;BME280;76856;42.356;24.732;2024-03-06T08:25:07;99092.75;;;12.16;79.25
86204;BME280;76856;42.356;24.732;2024-03-06T08:27:37;99099.38;;;12.12;78.11
86204;BME280;76856;42.356;24.732;2024-03-06T08:30:04;99103.34;;;12.16;77.17
86204;BME280;76856;42.356;24.732;2024-03-06T08:32:31;99096.94;;;12.26;78.13
86204;BME280;76856;42.356;24.732;2024-03-06T08:34:58;99096.66;;;12.35;76.87
86204;BME280;76856;42.356;24.732;2024-03-06T08:37:24;99096.56;;;12.44;76.76
86204;BME280;76856;42.356;24.732;2024-03-06T08:39:50;99099.84;;;12.46;75.56
86204;BME280;76856;42.356;24.732;2024-03-06T08:42:15;99105.59;;;12.49;74.62
86204;BME280;76856;42.356;24.732;2024-03-06T08:44:44;99097.75;;;12.41;74.54
86204;BME280;76856;42.356;24.732;2024-03-06T08:47:11;99094.84;;;12.51;76.19
86204;BME280;76856;42.356;24.732;2024-03-06T08:49:37;99089.22;;;12.60;75.03
86204;BME280;76856;42.356;24.732;2024-03-06T08:52:02;99087.91;;;12.86;78.09
86204;BME280;76856;42.356;24.732;2024-03-06T08:54:28;99092.41;;;13.07;75.65
86204;BME280;76856;42.356;24.732;2024-03-06T08:56:56;99093.16;;;13.37;75.03
86204;BME280;76856;42.356;24.732;2024-03-06T08:59:23;99097.31;;;13.68;75.23
86204;BME280;76856;42.356;24.732;2024-03-06T09:01:51;99093.50;;;13.77;72.40
86204;BME280;76856;42.356;24.732;2024-03-06T09:04:17;99089.94;;;13.91;73.47
86204;BME280;76856;42.356;24.732;2024-03-06T09:06:43;99089.66;;;14.14;74.05
86204;BME280;76856;42.356;24.732;2024-03-06T09:09:08;99091.84;;;14.39;68.95
86204;BME280;76856;42.356;24.732;2024-03-06T09:11:34;99087.50;;;14.66;71.57
86204;BME280;76856;42.356;24.732;2024-03-06T09:14:00;99090.44;;;14.84;69.22
86204;BME280;76856;42.356;24.732;2024-03-06T09:16:26;99083.94;;;15.07;68.09
86204;BME280;76856;42.356;24.732;2024-03-06T09:18:52;99084.56;;;15.16;63.48
86204;BME280;76856;42.356;24.732;2024-03-06T09:21:18;99093.81;;;15.33;66.84
86204;BME280;76856;42.356;24.732;2024-03-06T09:23:45;99083.38;;;15.45;65.16
86204;BME280;76856;42.356;24.732;2024-03-06T09:26:10;99093.03;;;15.59;66.66
86204;BME280;76856;42.356;24.732;2024-03-06T09:28:38;99081.38;;;15.73;67.22
86204;BME280;76856;42.356;24.732;2024-03-06T09:31:03;99084.03;;;15.80;62.71
86204;BME280;76856;42.356;24.732;2024-03-06T09:33:30;99087.75;;;15.86;64.95
86204;BME280;76856;42.356;24.732;2024-03-06T09:35:55;99077.84;;;16.06;64.48
86204;BME280;76856;42.356;24.732;2024-03-06T09:38:22;99073.31;;;16.13;61.64
86204;BME280;76856;42.356;24.732;2024-03-06T09:40:48;99081.31;;;16.13;65.35
86204;BME280;76856;42.356;24.732;2024-03-06T09:43:14;99077.25;;;16.04;60.94
86204;BME280;76856;42.356;24.732;2024-03-06T09:45:40;99079.53;;;15.81;63.86
86204;BME280;76856;42.356;24.732;2024-03-06T09:48:06;99086.69;;;15.67;63.67
86204;BME280;76856;42.356;24.732;2024-03-06T09:50:34;99078.91;;;15.65;63.41
86204;BME280;76856;42.356;24.732;2024-03-06T09:53:04;99081.38;;;15.73;61.35
86204;BME280;76856;42.356;24.732;2024-03-06T09:55:32;99086.91;;;15.72;60.10
86204;BME280;76856;42.356;24.732;2024-03-06T09:57:59;99072.16;;;15.69;60.83
86204;BME280;76856;42.356;24.732;2024-03-06T10:00:25;99078.28;;;15.70;61.92
86204;BME280;76856;42.356;24.732;2024-03-06T10:02:57;99076.81;;;15.67;62.50
86204;BME280;76856;42.356;24.732;2024-03-06T10:05:23;99060.25;;;15.79;64.62
86204;BME280;76856;42.356;24.732;2024-03-06T10:07:53;99069.25;;;16.04;63.13
86204;BME280;76856;42.356;24.732;2024-03-06T10:10:22;99062.81;;;16.32;63.12
86204;BME280;76856;42.356;24.732;2024-03-06T10:12:50;99064.00;;;16.49;63.12
86204;BME280;76856;42.356;24.732;2024-03-06T10:15:16;99063.25;;;16.74;64.29
86204;BME280;76856;42.356;24.732;2024-03-06T10:17:42;99069.00;;;16.84;58.67
86204;BME280;76856;42.356;24.732;2024-03-06T10:20:21;99056.66;;;16.89;59.77
86204;BME280;76856;42.356;24.732;2024-03-06T10:22:52;99066.13;;;16.85;57.86
86204;BME280;76856;42.356;24.732;2024-03-06T10:25:21;99068.00;;;16.72;58.01
86204;BME280;76856;42.356;24.732;2024-03-06T10:30:28;99055.19;;;16.42;58.95
86204;BME280;76856;42.356;24.732;2024-03-06T10:32:53;99049.91;;;16.29;59.80
86204;BME280;76856;42.356;24.732;2024-03-06T10:35:20;99053.25;;;15.91;56.06
86204;BME280;76856;42.356;24.732;2024-03-06T10:37:46;99051.66;;;15.70;58.17
86204;BME280;76856;42.356;24.732;2024-03-06T10:40:14;99044.22;;;15.59;58.98
86204;BME280;76856;42.356;24.732;2024-03-06T10:42:41;99055.31;;;15.49;59.37
86204;BME280;76856;42.356;24.732;2024-03-06T10:45:11;99045.28;;;15.51;60.66
86204;BME280;76856;42.356;24.732;2024-03-06T10:47:39;99045.50;;;15.69;60.21
86204;BME280;76856;42.356;24.732;2024-03-06T10:50:06;99039.31;;;15.89;60.65
86204;BME280;76856;42.356;24.732;2024-03-06T10:52:36;99038.66;;;16.07;59.33
86204;BME280;76856;42.356;24.732;2024-03-06T10:55:04;99028.13;;;16.25;58.97
86204;BME280;76856;42.356;24.732;2024-03-06T10:57:30;99028.75;;;16.27;55.79
86204;BME280;76856;42.356;24.732;2024-03-06T10:59:57;99026.06;;;16.34;56.56
86204;BME280;76856;42.356;24.732;2024-03-06T11:02:27;99028.09;;;16.38;56.28
86204;BME280;76856;42.356;24.732;2024-03-06T11:04:53;99025.41;;;16.45;56.02
86204;BME280;76856;42.356;24.732;2024-03-06T11:07:19;99015.19;;;16.35;55.18
86204;BME280;76856;42.356;24.732;2024-03-06T11:09:45;99021.94;;;16.38;55.56
86204;BME280;76856;42.356;24.732;2024-03-06T11:12:32;99014.94;;;16.43;56.18
86204;BME280;76856;42.356;24.732;2024-03-06T11:14:58;99013.09;;;16.44;55.39
86204;BME280;76856;42.356;24.732;2024-03-06T11:17:26;99020.25;;;16.50;55.39
86204;BME280;76856;42.356;24.732;2024-03-06T11:28:33;99002.22;;;17.16;52.76
86204;BME280;76856;42.356;24.732;2024-03-06T11:31:04;98989.78;;;17.28;52.67
86204;BME280;76856;42.356;24.732;2024-03-06T11:33:35;98994.41;;;17.46;56.29
86204;BME280;76856;42.356;24.732;2024-03-06T11:36:18;98998.50;;;17.48;53.14
86204;BME280;76856;42.356;24.732;2024-03-06T11:41:13;98985.16;;;17.42;50.45
86204;BME280;76856;42.356;24.732;2024-03-06T11:43:42;98991.31;;;17.42;51.65
86204;BME280;76856;42.356;24.732;2024-03-06T11:46:09;98990.88;;;17.45;50.96
86204;BME280;76856;42.356;24.732;2024-03-06T11:48:36;98983.25;;;17.24;49.29
86204;BME280;76856;42.356;24.732;2024-03-06T11:51:02;98984.78;;;17.38;52.79
86204;BME280;76856;42.356;24.732;2024-03-06T11:53:34;98972.78;;;17.47;50.64
86204;BME280;76856;42.356;24.732;2024-03-06T11:56:06;98971.00;;;17.60;50.96
86204;BME280;76856;42.356;24.732;2024-03-06T11:58:33;98977.09;;;17.48;50.65
86204;BME280;76856;42.356;24.732;2024-03-06T12:00:59;98967.44;;;17.47;50.29
86204;BME280;76856;42.356;24.732;2024-03-06T12:03:27;98969.81;;;17.37;51.04
86204;BME280;76856;42.356;24.732;2024-03-06T12:05:53;98975.78;;;17.32;51.18
86204;BME280;76856;42.356;24.732;2024-03-06T12:08:18;98959.03;;;17.19;50.68
86204;BME280;76856;42.356;24.732;2024-03-06T12:10:47;98962.75;;;17.18;52.43
86204;BME280;76856;42.356;24.732;2024-03-06T12:13:15;98969.91;;;17.24;51.89
86204;BME280;76856;42.356;24.732;2024-03-06T12:15:45;98970.38;;;17.39;51.04
86204;BME280;76856;42.356;24.732;2024-03-06T12:18:11;98970.38;;;17.39;49.39
86204;BME280;76856;42.356;24.732;2024-03-06T12:20:42;98973.31;;;17.31;50.64
86204;BME280;76856;42.356;24.732;2024-03-06T12:23:21;98968.66;;;17.26;49.85
86204;BME280;76856;42.356;24.732;2024-03-06T12:25:48;98965.75;;;17.03;49.42
86204;BME280;76856;42.356;24.732;2024-03-06T12:28:14;98968.72;;;16.88;49.63
86204;BME280;76856;42.356;24.732;2024-03-06T12:30:41;98973.91;;;16.83;49.56
86204;BME280;76856;42.356;24.732;2024-03-06T12:33:10;98973.94;;;16.76;50.22
86204;BME280;76856;42.356;24.732;2024-03-06T12:35:40;98966.84;;;16.57;50.47
86204;BME280;76856;42.356;24.732;2024-03-06T12:38:15;98964.91;;;16.32;51.24
86204;BME280;76856;42.356;24.732;2024-03-06T12:40:42;98968.81;;;16.30;50.75
86204;BME280;76856;42.356;24.732;2024-03-06T12:43:08;98971.31;;;16.25;50.43
86204;BME280;76856;42.356;24.732;2024-03-06T12:45:35;98969.94;;;16.02;51.39
86204;BME280;76856;42.356;24.732;2024-03-06T12:48:03;98967.09;;;16.04;51.89
86204;BME280;76856;42.356;24.732;2024-03-06T12:50:28;98967.13;;;15.97;51.93
86204;BME280;76856;42.356;24.732;2024-03-06T12:52:54;98979.00;;;16.01;50.63
86204;BME280;76856;42.356;24.732;2024-03-06T12:55:19;98970.22;;;15.94;50.42
86204;BME280;76856;42.356;24.732;2024-03-06T12:57:45;98974.91;;;15.92;52.13
86204;BME280;76856;42.356;24.732;2024-03-06T13:00:12;98970.78;;;15.96;51.16
86204;BME280;76856;42.356;24.732;2024-03-06T13:02:46;98969.53;;;16.05;51.87
86204;BME280;76856;42.356;24.732;2024-03-06T13:05:12;98972.19;;;16.05;52.49
86204;BME280;76856;42.356;24.732;2024-03-06T13:07:38;98963.38;;;16.05;52.03